Time;durP1;ratioP1;P1;durP2;ratioP2;P2;SDS_P1;SDS_P2;PMS_P1;PMS_P2;Temp;Humidity;BMP_temperature;BMP_pressure;BME280_temperature;BME280_humidity;BME280_pressure;Samples;Min_cycle;Max_cycle;Signal;HPM_P1;HPM_P2
2022/08/22 00:00:53;;;;;;;5.20;4.73;;;16.70;99.90;;;;;;4810811;29;20452;-86
2022/08/22 00:04:15;;;;;;;4.47;4.07;;;16.60;99.90;;;;;;4807045;29;20476;-85
2022/08/22 00:07:03;;;;;;;5.27;4.77;;;16.70;99.90;;;;;;4775729;29;20473;-86
2022/08/22 00:09:56;;;;;;;4.73;4.23;;;16.90;99.90;;;;;;4792291;29;20628;-89
2022/08/22 00:12:36;;;;;;;5.70;5.20;;;16.80;99.90;;;;;;4803413;29;20455;-86
2022/08/22 00:15:14;;;;;;;5.10;4.60;;;16.70;99.90;;;;;;4819543;29;20555;-86
2022/08/22 00:17:59;;;;;;;7.70;4.97;;;16.70;99.90;;;;;;4811871;29;20463;-86
2022/08/22 00:20:32;;;;;;;4.53;4.13;;;16.80;99.90;;;;;;4813573;29;20444;-85
2022/08/22 00:23:23;;;;;;;7.40;4.33;;;16.70;99.90;;;;;;4796290;29;20488;-86
2022/08/22 00:26:16;;;;;;;5.20;4.70;;;16.60;99.90;;;;;;4812137;29;20720;-85
2022/08/22 00:29:11;;;;;;;5.20;4.80;;;16.70;99.90;;;;;;4820975;29;20997;-85
2022/08/22 00:31:45;;;;;;;6.70;4.70;;;16.50;99.90;;;;;;4807483;29;20509;-87
2022/08/22 00:34:36;;;;;;;5.80;5.20;;;16.50;99.90;;;;;;4826379;29;20442;-86
2022/08/22 00:37:18;;;;;;;5.63;5.03;;;16.50;99.90;;;;;;4822632;29;20464;-86
2022/08/22 00:40:23;;;;;;;5.03;4.47;;;16.50;99.90;;;;;;4817470;29;20444;-86
2022/08/22 00:43:53;;;;;;;5.73;5.20;;;16.60;99.90;;;;;;4782298;29;20480;-87
2022/08/22 00:47:05;;;;;;;7.40;5.30;;;16.70;99.90;;;;;;4724594;30;21133;-86
2022/08/22 00:49:52;;;;;;;6.20;5.20;;;16.60;99.90;;;;;;4725356;30;20456;-86
2022/08/22 00:52:36;;;;;;;6.63;5.60;;;16.50;99.90;;;;;;4808797;29;20451;-87
2022/08/22 00:55:10;;;;;;;5.50;5.10;;;16.50;99.90;;;;;;4801095;29;20459;-86
2022/08/22 00:58:13;;;;;;;5.50;5.03;;;16.20;99.90;;;;;;4801916;29;21679;-87
2022/08/22 01:00:58;;;;;;;6.67;4.97;;;16.10;99.90;;;;;;4803636;29;20562;-87
2022/08/22 01:03:45;;;;;;;6.13;5.50;;;15.90;99.90;;;;;;4807683;29;20491;-86
2022/08/22 01:06:43;;;;;;;6.47;5.30;;;16.10;99.90;;;;;;4817966;29;20820;-85
2022/08/22 01:09:45;;;;;;;6.30;5.70;;;16.20;99.90;;;;;;4794464;29;20459;-86
2022/08/22 01:12:39;;;;;;;5.90;5.33;;;16.20;99.90;;;;;;4801892;29;20491;-86
2022/08/22 01:15:09;;;;;;;7.70;5.50;;;16.20;99.90;;;;;;4792444;29;20499;-86
2022/08/22 01:17:57;;;;;;;5.90;5.40;;;16.20;99.90;;;;;;4801904;29;20459;-86
2022/08/22 01:20:45;;;;;;;5.30;4.80;;;16.30;99.90;;;;;;4810525;29;20481;-85
2022/08/22 01:23:57;;;;;;;5.40;4.90;;;16.50;99.90;;;;;;4800798;29;20483;-84
2022/08/22 01:27:04;;;;;;;5.60;5.10;;;16.40;99.90;;;;;;4817842;29;20531;-87
2022/08/22 01:30:00;;;;;;;6.53;5.37;;;16.20;99.90;;;;;;4814450;29;20460;-87
2022/08/22 01:32:34;;;;;;;6.43;5.40;;;16.10;99.90;;;;;;4808588;29;20809;-85
2022/08/22 01:35:31;;;;;;;5.50;4.50;;;16.00;99.90;;;;;;4809455;29;20463;-84
2022/08/22 01:38:16;;;;;;;6.87;5.60;;;15.90;99.90;;;;;;4815396;29;20468;-85
2022/08/22 01:41:01;;;;;;;6.27;5.67;;;15.90;99.90;;;;;;4810949;29;20467;-85
2022/08/22 01:44:20;;;;;;;6.63;5.10;;;15.90;99.90;;;;;;4809505;29;20519;-86
2022/08/22 01:46:55;;;;;;;5.83;5.13;;;16.00;99.90;;;;;;4765259;29;21099;-86
2022/08/22 01:49:26;;;;;;;7.53;5.80;;;16.00;99.90;;;;;;4762262;29;20450;-87
2022/08/22 01:52:04;;;;;;;7.27;5.23;;;15.90;99.90;;;;;;4795814;29;20505;-86
2022/08/22 01:54:42;;;;;;;5.40;4.90;;;15.70;99.90;;;;;;4807707;29;20516;-85
2022/08/22 01:57:09;;;;;;;6.97;6.30;;;15.50;99.90;;;;;;4819858;29;20459;-85
2022/08/22 01:59:39;;;;;;;7.50;6.00;;;15.60;99.90;;;;;;4807670;29;20935;-87
2022/08/22 02:02:34;;;;;;;6.50;5.90;;;15.70;99.90;;;;;;4809879;29;20523;-86
2022/08/22 02:05:09;;;;;;;5.97;5.40;;;15.60;99.90;;;;;;4798237;29;20458;-86
2022/08/22 02:07:45;;;;;;;8.20;5.60;;;15.50;99.90;;;;;;4814347;29;20612;-86
2022/08/22 02:10:33;;;;;;;5.87;5.10;;;15.50;99.90;;;;;;4813006;29;20452;-86
2022/08/22 02:13:11;;;;;;;5.87;5.27;;;15.40;99.90;;;;;;4801044;29;20460;-85
2022/08/22 02:15:40;;;;;;;5.70;5.20;;;15.30;99.90;;;;;;4794254;29;20446;-86
2022/08/22 02:18:05;;;;;;;6.67;6.07;;;15.30;99.90;;;;;;4814132;29;20456;-86
2022/08/22 02:20:47;;;;;;;6.20;5.17;;;15.30;99.90;;;;;;4812822;29;20998;-85
2022/08/22 02:23:47;;;;;;;7.00;6.30;;;15.40;99.90;;;;;;4818023;29;20233;-86
2022/08/22 02:26:51;;;;;;;6.27;5.60;;;15.40;99.90;;;;;;4807156;29;20455;-86
2022/08/22 02:29:39;;;;;;;6.23;5.63;;;15.40;99.90;;;;;;4789032;29;20440;-86
2022/08/22 02:32:15;;;;;;;7.83;5.60;;;15.30;99.90;;;;;;4811752;29;20977;-86
2022/08/22 02:35:15;;;;;;;7.17;5.60;;;15.30;99.90;;;;;;4795201;29;20440;-86
2022/08/22 02:38:02;;;;;;;6.00;5.40;;;15.20;99.90;;;;;;4792014;29;20451;-85
2022/08/22 02:40:38;;;;;;;9.13;6.23;;;15.10;99.90;;;;;;4812986;29;20626;-86
2022/08/22 02:43:17;;;;;;;5.50;5.00;;;15.10;99.90;;;;;;4812705;29;20492;-85
2022/08/22 02:46:00;;;;;;;7.13;5.07;;;15.10;99.90;;;;;;4800589;29;20853;-85
2022/08/22 02:48:40;;;;;;;6.80;5.83;;;14.90;99.90;;;;;;4796279;29;20620;-86
2022/08/22 02:51:27;;;;;;;6.37;5.77;;;14.60;99.90;;;;;;4791596;29;20454;-85
2022/08/22 02:54:11;;;;;;;6.67;6.07;;;14.50;99.90;;;;;;4801040;29;20777;-85
2022/08/22 02:56:44;;;;;;;7.63;5.80;;;14.60;99.90;;;;;;4807129;29;20452;-84
2022/08/22 02:59:34;;;;;;;7.20;5.80;;;14.50;99.90;;;;;;4816368;29;20899;-86
2022/08/22 03:02:36;;;;;;;5.30;4.77;;;14.40;99.90;;;;;;4812181;29;20448;-85
2022/08/22 03:05:40;;;;;;;6.93;6.20;;;14.40;99.90;;;;;;4795965;29;20467;-85
2022/08/22 03:09:01;;;;;;;6.60;4.90;;;14.40;99.90;;;;;;4808706;29;20435;-85
2022/08/22 03:11:30;;;;;;;6.27;5.60;;;14.50;99.90;;;;;;4810245;29;20822;-85
2022/08/22 03:14:04;;;;;;;5.80;5.20;;;14.70;99.90;;;;;;4801031;29;20452;-85
2022/08/22 03:17:11;;;;;;;6.57;6.00;;;14.70;99.90;;;;;;4816986;29;20451;-86
2022/08/22 03:20:19;;;;;;;6.40;5.90;;;14.70;99.90;;;;;;4799246;29;20446;-86
2022/08/22 03:23:01;;;;;;;6.13;5.53;;;14.50;99.90;;;;;;4799296;29;20483;-86
2022/08/22 03:25:39;;;;;;;6.30;5.73;;;14.20;99.90;;;;;;4811367;29;20654;-85
2022/08/22 03:28:14;;;;;;;5.90;5.37;;;14.00;99.90;;;;;;4797042;29;20459;-86
2022/08/22 03:31:10;;;;;;;6.03;5.50;;;14.00;99.90;;;;;;4812785;29;20443;-86
2022/08/22 03:33:36;;;;;;;6.40;5.70;;;14.10;99.90;;;;;;4811940;29;20480;-86
2022/08/22 03:36:20;;;;;;;7.30;6.10;;;14.30;99.90;;;;;;4809905;29;20543;-86
2022/08/22 03:39:17;;;;;;;6.70;6.07;;;14.30;99.90;;;;;;4814243;29;20199;-86
2022/08/22 03:42:09;;;;;;;7.50;5.83;;;14.30;99.90;;;;;;4800256;29;20972;-86
2022/08/22 03:45:19;;;;;;;6.37;5.60;;;14.40;99.90;;;;;;4794053;29;20469;-86
2022/08/22 03:48:06;;;;;;;6.30;5.80;;;14.40;99.90;;;;;;4815053;29;20455;-86
2022/08/22 03:51:07;;;;;;;6.37;5.70;;;14.40;99.90;;;;;;4813573;29;21253;-86
2022/08/22 03:53:52;;;;;;;5.90;5.40;;;14.30;99.90;;;;;;4814774;29;20448;-86
2022/08/22 03:56:51;;;;;;;5.33;4.87;;;14.30;99.90;;;;;;4811003;29;20954;-85
2022/08/22 03:59:16;;;;;;;6.87;6.20;;;14.20;99.90;;;;;;4815557;29;20452;-86
2022/08/22 04:02:00;;;;;;;9.93;7.93;;;14.20;99.90;;;;;;4812026;29;20505;-83
2022/08/22 04:04:41;;;;;;;6.57;5.97;;;14.20;99.90;;;;;;4813305;29;22209;-83
2022/08/22 04:07:16;;;;;;;7.07;6.27;;;14.10;99.90;;;;;;4822847;29;20451;-84
2022/08/22 04:10:31;;;;;;;6.80;6.20;;;14.00;99.90;;;;;;4823959;29;20452;-83
2022/08/22 04:13:27;;;;;;;7.27;6.60;;;14.00;99.90;;;;;;4793497;29;20492;-84
2022/08/22 04:16:31;;;;;;;6.93;6.33;;;14.30;99.90;;;;;;4792682;29;20455;-84
2022/08/22 04:19:30;;;;;;;6.20;5.60;;;14.30;99.90;;;;;;4770101;29;20757;-83
2022/08/22 04:21:56;;;;;;;6.47;5.87;;;14.60;99.90;;;;;;4772108;29;20457;-84
2022/08/22 04:24:29;;;;;;;6.93;6.20;;;14.60;99.90;;;;;;4772849;29;21028;-90
2022/08/22 04:41:51;;;;;;;6.60;6.00;;;13.90;99.90;;;;;;4848181;29;20715;-93
2022/08/22 04:44:50;;;;;;;6.40;5.80;;;13.90;99.90;;;;;;4863800;29;20547;-96
2022/08/22 04:47:32;;;;;;;6.27;5.77;;;13.80;99.90;;;;;;4851870;29;20495;-92
2022/08/22 04:50:04;;;;;;;6.63;5.90;;;13.70;99.90;;;;;;4827930;29;20439;-96
2022/08/22 04:53:08;;;;;;;7.03;5.80;;;13.70;99.90;;;;;;4854664;29;20450;-92
2022/08/22 04:55:47;;;;;;;6.70;6.10;;;13.60;99.90;;;;;;4830458;29;20646;-92
2022/08/22 04:58:51;;;;;;;6.43;5.83;;;13.70;99.90;;;;;;4850365;29;20441;-96
2022/08/22 05:01:45;;;;;;;6.53;5.67;;;13.80;99.90;;;;;;4820995;29;20530;-95
2022/08/22 05:04:31;;;;;;;6.13;5.63;;;13.90;99.90;;;;;;4840247;29;20479;-93
2022/08/22 05:07:09;;;;;;;6.40;5.90;;;13.90;99.90;;;;;;4822725;29;20450;-96
2022/08/22 05:09:43;;;;;;;6.50;6.00;;;14.00;99.90;;;;;;4841843;29;21236;-92
2022/08/22 05:12:14;;;;;;;6.27;5.77;;;14.00;99.90;;;;;;4849411;29;20446;-96
2022/08/22 05:15:04;;;;;;;8.00;6.07;;;14.00;99.90;;;;;;4861968;29;20447;-96
2022/08/22 05:17:31;;;;;;;7.07;6.40;;;13.90;99.90;;;;;;4826323;29;20459;-96
2022/08/22 05:20:08;;;;;;;6.80;6.20;;;13.90;99.90;;;;;;4838511;29;20453;-95
2022/08/22 05:22:55;;;;;;;7.20;5.50;;;13.90;99.90;;;;;;4824871;29;21245;-95
2022/08/22 05:25:36;;;;;;;6.80;5.60;;;14.00;99.90;;;;;;4828184;29;20463;-92
2022/08/22 05:28:07;;;;;;;6.30;5.43;;;14.00;99.90;;;;;;4838650;29;20453;-91
2022/08/22 05:30:39;;;;;;;5.87;5.27;;;14.00;99.90;;;;;;4835848;29;20482;-94
2022/08/22 05:33:35;;;;;;;8.13;5.07;;;14.10;99.90;;;;;;4811213;29;20654;-93
2022/08/22 05:36:26;;;;;;;6.73;5.57;;;14.10;99.90;;;;;;4814915;29;20454;-92
2022/08/22 05:39:17;;;;;;;6.43;5.83;;;14.20;99.90;;;;;;4845199;29;21213;-93
2022/08/22 05:41:44;;;;;;;9.53;5.67;;;14.40;99.90;;;;;;4838500;29;20458;-91
2022/08/22 05:44:36;;;;;;;7.73;5.90;;;14.60;99.90;;;;;;4826963;29;20898;-94
2022/08/22 05:47:39;;;;;;;7.33;5.67;;;14.80;99.90;;;;;;4831658;29;20447;-93
2022/08/22 05:50:17;;;;;;;6.67;6.00;;;15.00;99.90;;;;;;4837274;29;20455;-93
2022/08/22 05:53:10;;;;;;;7.03;6.40;;;15.10;99.90;;;;;;4845020;29;20784;-94
2022/08/22 05:55:56;;;;;;;7.23;5.50;;;15.10;99.90;;;;;;4823386;29;20968;-94
2022/08/22 05:58:37;;;;;;;6.57;5.97;;;15.20;99.90;;;;;;4840330;29;20453;-94
2022/08/22 06:01:18;;;;;;;6.17;5.57;;;15.30;99.90;;;;;;4833193;29;20447;-94
2022/08/22 06:04:07;;;;;;;6.10;5.60;;;15.40;99.90;;;;;;4825605;29;20490;-94
2022/08/22 06:06:44;;;;;;;6.50;5.90;;;15.40;99.90;;;;;;4841141;29;20882;-93
2022/08/22 06:09:52;;;;;;;6.17;5.57;;;15.40;99.90;;;;;;4853008;29;20499;-93
2022/08/22 06:12:43;;;;;;;6.13;5.63;;;15.50;99.90;;;;;;4830369;29;20442;-93
2022/08/22 06:15:45;;;;;;;6.70;6.03;;;15.60;99.90;;;;;;4837492;29;20854;-93
2022/08/22 06:18:15;;;;;;;6.23;5.63;;;15.80;99.90;;;;;;4840723;29;20879;-94
2022/08/22 06:20:44;;;;;;;6.33;5.73;;;15.90;99.90;;;;;;4815842;29;20459;-93
2022/08/22 06:23:24;;;;;;;5.30;4.80;;;16.00;99.90;;;;;;4844291;29;20831;-93
2022/08/22 06:25:52;;;;;;;5.23;4.70;;;16.10;99.90;;;;;;4823589;29;20446;-92
2022/08/22 06:28:22;;;;;;;5.50;5.00;;;16.30;99.90;;;;;;4817161;29;20945;-94
2022/08/22 06:30:55;;;;;;;5.90;5.40;;;16.50;99.90;;;;;;4835169;29;20530;-93
2022/08/22 06:33:25;;;;;;;6.30;5.80;;;16.50;99.90;;;;;;4824319;29;20530;-94
2022/08/22 06:36:30;;;;;;;6.60;5.50;;;16.70;99.90;;;;;;4834900;29;20451;-92
2022/08/22 06:39:22;;;;;;;6.27;5.67;;;16.80;99.90;;;;;;4837758;29;21029;-94
2022/08/22 06:41:50;;;;;;;8.50;6.43;;;16.90;99.90;;;;;;4832376;29;20447;-95
2022/08/22 06:44:28;;;;;;;5.63;5.10;;;16.90;99.90;;;;;;4822534;29;21068;-93
2022/08/22 06:47:00;;;;;;;5.87;5.37;;;16.90;99.90;;;;;;4824968;29;20497;-93
2022/08/22 06:49:29;;;;;;;6.03;5.43;;;16.80;99.90;;;;;;4827884;29;20451;-94
2022/08/22 06:52:12;;;;;;;6.23;5.60;;;16.80;99.90;;;;;;4836159;29;23449;-93
2022/08/22 06:54:44;;;;;;;8.23;6.23;;;16.90;99.90;;;;;;4824722;29;20867;-93
2022/08/22 06:57:50;;;;;;;6.80;6.20;;;17.00;99.90;;;;;;4830455;29;20449;-94
2022/08/22 07:00:17;;;;;;;7.30;6.70;;;17.00;99.90;;;;;;4825075;29;20874;-94
2022/08/22 07:03:23;;;;;;;6.23;5.57;;;17.00;99.90;;;;;;4806719;29;20600;-94
2022/08/22 07:05:53;;;;;;;7.20;6.47;;;17.10;99.90;;;;;;4818361;29;20557;-92
2022/08/22 07:08:42;;;;;;;6.37;5.70;;;17.30;99.90;;;;;;4848539;29;20858;-94
2022/08/22 07:11:14;;;;;;;6.30;5.60;;;17.40;99.90;;;;;;4850791;29;20534;-93
2022/08/22 07:13:46;;;;;;;6.27;5.67;;;17.40;99.90;;;;;;4820867;29;20451;-93
2022/08/22 07:16:13;;;;;;;5.97;5.17;;;17.40;99.90;;;;;;4821690;29;20580;-93
2022/08/22 07:18:48;;;;;;;6.47;5.87;;;17.50;99.90;;;;;;4825459;29;20504;-93
2022/08/22 07:21:25;;;;;;;8.20;6.27;;;17.60;99.90;;;;;;4827005;29;20458;-93
2022/08/22 07:23:52;;;;;;;6.13;5.60;;;17.70;99.90;;;;;;4823658;29;20610;-93
2022/08/22 07:27:12;;;;;;;7.50;5.80;;;17.80;99.90;;;;;;4825343;29;22071;-93
2022/08/22 07:30:02;;;;;;;7.33;6.67;;;17.90;99.90;;;;;;4826930;29;20989;-93
2022/08/22 07:32:47;;;;;;;8.40;7.40;;;17.90;99.90;;;;;;4814681;29;20935;-93
2022/08/22 07:35:16;;;;;;;8.37;7.67;;;17.90;99.90;;;;;;4835716;29;20459;-93
2022/08/22 07:38:06;;;;;;;7.17;6.57;;;18.00;99.90;;;;;;4848360;29;20457;-93
2022/08/22 07:41:00;;;;;;;5.60;5.10;;;18.10;99.90;;;;;;4837418;29;20458;-94
2022/08/22 07:43:36;;;;;;;4.80;4.40;;;18.30;99.90;;;;;;4851195;29;20515;-93
2022/08/22 07:46:11;;;;;;;5.63;5.13;;;18.50;99.90;;;;;;4836119;29;20488;-94
2022/08/22 07:48:49;;;;;;;5.90;5.40;;;18.80;99.90;;;;;;4842616;29;20992;-93
2022/08/22 07:51:34;;;;;;;5.60;5.07;;;19.10;99.90;;;;;;4823172;29;20505;-93
2022/08/22 07:54:05;;;;;;;6.00;5.50;;;19.00;99.90;;;;;;4823946;29;21143;-94
2022/08/22 07:56:38;;;;;;;4.97;4.57;;;19.20;99.90;;;;;;4819490;29;20458;-93
2022/08/22 07:59:18;;;;;;;5.47;4.97;;;19.40;99.90;;;;;;4846041;29;20476;-93
2022/08/22 08:01:47;;;;;;;5.60;5.10;;;19.60;99.90;;;;;;4824467;29;21948;-92
2022/08/22 08:04:17;;;;;;;5.30;4.90;;;19.70;99.90;;;;;;4846859;29;20479;-94
2022/08/22 08:06:47;;;;;;;5.13;4.63;;;19.70;99.90;;;;;;4852416;29;20535;-93
2022/08/22 08:09:16;;;;;;;5.20;4.70;;;20.00;99.90;;;;;;4838651;29;20439;-94
2022/08/22 08:11:52;;;;;;;4.77;4.27;;;20.20;99.90;;;;;;4856002;29;20527;-94
2022/08/22 08:14:20;;;;;;;5.10;4.27;;;20.30;99.90;;;;;;4833779;29;20913;-94
2022/08/22 08:17:04;;;;;;;5.30;4.43;;;20.50;99.90;;;;;;4837912;29;20813;-94
2022/08/22 08:19:34;;;;;;;4.27;3.87;;;20.80;99.90;;;;;;4839383;29;20459;-93
2022/08/22 08:22:00;;;;;;;4.30;3.90;;;21.10;99.90;;;;;;4839656;29;20577;-93
2022/08/22 08:24:35;;;;;;;5.93;4.60;;;21.10;99.50;;;;;;4837245;29;20482;-93
2022/08/22 08:30:31;;;;;;;4.90;4.40;;;21.20;99.90;;;;;;4853776;29;20980;-93
2022/08/22 08:32:59;;;;;;;4.57;4.17;;;21.30;99.90;;;;;;4848682;29;21008;-94
2022/08/22 08:35:30;;;;;;;4.07;3.67;;;21.50;99.90;;;;;;4838782;29;20446;-94
2022/08/22 08:38:02;;;;;;;5.50;4.30;;;21.60;99.90;;;;;;4836155;29;20447;-93
2022/08/22 08:41:06;;;;;;;6.13;4.30;;;21.70;99.90;;;;;;4850619;29;20462;-93
2022/08/22 08:43:56;;;;;;;4.03;3.63;;;21.90;99.90;;;;;;4848136;29;20482;-94
2022/08/22 08:46:56;;;;;;;5.43;4.70;;;22.00;99.90;;;;;;4854326;29;20450;-95
2022/08/22 08:49:39;;;;;;;4.50;4.20;;;22.10;99.90;;;;;;4849469;29;20993;-95
2022/08/22 08:52:23;;;;;;;5.20;4.70;;;22.20;99.90;;;;;;4851809;29;20957;-94
2022/08/22 08:54:55;;;;;;;5.07;4.67;;;22.40;99.90;;;;;;4832962;29;20447;-94
2022/08/22 08:57:38;;;;;;;6.90;4.13;;;22.70;99.90;;;;;;4846828;29;20443;-94
2022/08/22 09:00:21;;;;;;;5.40;4.30;;;22.80;99.90;;;;;;4824025;29;20447;-93
2022/08/22 09:03:04;;;;;;;5.83;5.40;;;22.90;99.90;;;;;;4845711;29;21026;-93
2022/08/22 09:05:46;;;;;;;5.73;5.33;;;22.90;99.90;;;;;;4836807;29;20461;-95
2022/08/22 09:08:29;;;;;;;9.77;5.43;;;23.00;99.90;;;;;;4839046;29;20486;-93
2022/08/22 09:11:17;;;;;;;5.47;4.97;;;23.10;99.90;;;;;;4851244;29;20972;-93
2022/08/22 09:13:45;;;;;;;5.60;4.50;;;23.50;99.40;;;;;;4849044;29;20454;-94
2022/08/22 09:16:32;;;;;;;5.00;4.60;;;23.60;99.90;;;;;;4846963;29;20980;-93
2022/08/22 09:19:24;;;;;;;4.87;4.47;;;23.60;99.70;;;;;;4828016;29;20538;-94
2022/08/22 09:22:20;;;;;;;4.37;4.00;;;23.60;99.90;;;;;;4842373;29;21117;-94
2022/08/22 09:25:05;;;;;;;5.33;4.90;;;23.70;99.90;;;;;;4849725;29;20471;-94
2022/08/22 09:27:47;;;;;;;6.60;5.57;;;23.80;99.90;;;;;;4847848;29;20940;-94
2022/08/22 09:30:18;;;;;;;4.93;4.53;;;23.90;99.40;;;;;;4832497;29;20536;-94
2022/08/22 09:33:04;;;;;;;5.20;4.70;;;24.10;98.80;;;;;;4851795;29;20455;-93
2022/08/22 09:35:49;;;;;;;5.33;4.93;;;24.20;99.20;;;;;;4823294;29;20498;-94
2022/08/22 09:38:43;;;;;;;5.20;4.80;;;24.20;98.50;;;;;;4834442;29;20439;-94
2022/08/22 09:41:34;;;;;;;6.17;5.57;;;24.30;99.10;;;;;;4826351;29;20482;-94
2022/08/22 09:44:18;;;;;;;5.67;5.27;;;24.50;99.80;;;;;;4831100;29;20511;-94
2022/08/22 09:47:31;;;;;;;6.73;6.23;;;24.70;99.20;;;;;;4831953;29;20461;-93
2022/08/22 09:50:29;;;;;;;5.63;5.23;;;24.60;98.60;;;;;;4846583;29;20446;-93
2022/08/22 09:53:29;;;;;;;5.00;4.60;;;24.70;99.10;;;;;;4819887;29;20539;-93
2022/08/22 09:56:05;;;;;;;7.03;5.50;;;24.80;97.90;;;;;;4831499;29;21770;-95
2022/08/22 09:58:52;;;;;;;6.30;5.77;;;25.00;98.80;;;;;;4848359;29;20507;-94
2022/08/22 10:01:58;;;;;;;7.00;5.70;;;25.20;97.80;;;;;;4846300;29;20446;-95
2022/08/22 10:05:01;;;;;;;5.40;4.90;;;25.40;96.80;;;;;;4828554;29;20490;-94
2022/08/22 10:07:40;;;;;;;5.63;5.23;;;25.60;96.50;;;;;;4824259;29;20499;-94
2022/08/22 10:10:32;;;;;;;5.97;5.47;;;25.60;94.50;;;;;;4843853;29;20482;-93
2022/08/22 10:13:14;;;;;;;8.10;5.83;;;25.70;95.40;;;;;;4834231;29;20450;-94
2022/08/22 10:16:12;;;;;;;6.73;6.13;;;25.80;95.50;;;;;;4845165;29;20549;-94
2022/08/22 10:19:01;;;;;;;6.30;5.50;;;25.80;96.30;;;;;;4846397;29;20499;-94
2022/08/22 10:21:37;;;;;;;6.03;5.63;;;25.80;96.20;;;;;;4783170;29;20471;-94
2022/08/22 10:24:10;;;;;;;5.90;5.50;;;25.90;96.10;;;;;;4830318;29;21663;-92
2022/08/22 10:26:49;;;;;;;5.63;5.23;;;25.90;93.60;;;;;;4847335;29;20972;-93
2022/08/22 10:29:36;;;;;;;6.27;5.67;;;25.90;95.00;;;;;;4829571;29;20471;-93
2022/08/22 10:32:20;;;;;;;6.33;5.90;;;26.00;93.40;;;;;;4844755;29;20785;-93
2022/08/22 10:34:51;;;;;;;5.73;5.23;;;26.30;92.30;;;;;;4832412;29;20482;-95
2022/08/22 10:37:36;;;;;;;5.13;4.73;;;26.40;91.50;;;;;;4829974;29;20450;-95
2022/08/22 10:40:14;;;;;;;5.20;4.80;;;26.60;91.70;;;;;;4844134;29;20802;-94
2022/08/22 10:42:54;;;;;;;4.70;4.30;;;26.80;91.30;;;;;;4849401;29;20431;-94
2022/08/22 10:45:39;;;;;;;4.90;4.50;;;26.60;85.00;;;;;;4831615;29;20450;-94
2022/08/22 10:48:04;;;;;;;5.10;4.80;;;26.70;86.80;;;;;;4830309;29;20510;-93
2022/08/22 10:50:32;;;;;;;5.37;4.50;;;26.70;85.30;;;;;;4847411;29;20479;-94
2022/08/22 10:53:31;;;;;;;5.00;4.50;;;27.00;89.60;;;;;;4847590;29;20196;-92
2022/08/22 10:56:12;;;;;;;3.97;3.67;;;27.40;79.30;;;;;;4826473;29;20447;-94
2022/08/22 10:59:15;;;;;;;4.30;4.00;;;27.40;74.60;;;;;;4847274;29;20981;-96
2022/08/22 11:02:15;;;;;;;4.60;4.20;;;27.20;75.00;;;;;;4826468;29;20466;-94
2022/08/22 11:04:55;;;;;;;5.33;4.77;;;26.80;78.40;;;;;;4844319;29;20491;-93
2022/08/22 11:07:43;;;;;;;5.13;4.63;;;26.70;83.30;;;;;;4843456;29;20450;-94
2022/08/22 11:10:52;;;;;;;4.73;4.33;;;27.30;82.10;;;;;;4848485;29;20454;-94
2022/08/22 11:13:38;;;;;;;4.83;4.40;;;27.90;83.40;;;;;;4816572;29;20431;-94
2022/08/22 11:16:39;;;;;;;4.17;3.80;;;28.00;78.10;;;;;;4845055;29;20504;-93
2022/08/22 11:19:30;;;;;;;5.43;4.73;;;28.30;78.40;;;;;;4838503;29;20481;-95
2022/08/22 11:22:08;;;;;;;4.07;3.73;;;28.50;80.00;;;;;;4835637;29;20452;-91
2022/08/22 11:24:59;;;;;;;3.70;3.40;;;28.90;66.60;;;;;;4847710;29;20541;-92
2022/08/22 11:28:03;;;;;;;3.70;3.40;;;29.10;73.30;;;;;;4847590;29;20472;-96
2022/08/22 11:30:41;;;;;;;4.17;3.87;;;29.00;70.50;;;;;;4847381;29;20450;-93
2022/08/22 11:33:35;;;;;;;5.53;4.87;;;29.10;75.90;;;;;;4848233;29;20538;-96
2022/08/22 11:36:04;;;;;;;4.97;4.47;;;29.00;73.10;;;;;;4809559;29;20565;-93
2022/08/22 11:39:08;;;;;;;4.20;3.90;;;28.80;78.00;;;;;;4831445;29;20528;-94
2022/08/22 11:42:05;;;;;;;4.90;4.50;;;28.50;73.80;;;;;;4850420;29;20469;-95
2022/08/22 11:44:55;;;;;;;5.00;4.70;;;28.50;77.00;;;;;;4850552;29;20457;-93
2022/08/22 11:47:26;;;;;;;4.50;4.20;;;28.40;73.70;;;;;;4845451;29;20482;-94
2022/08/22 11:50:07;;;;;;;4.80;4.40;;;28.00;72.30;;;;;;4841714;29;20451;-94
2022/08/22 11:52:53;;;;;;;4.50;4.20;;;28.40;74.10;;;;;;4849351;29;20813;-94
2022/08/22 11:55:32;;;;;;;7.03;4.33;;;29.30;75.30;;;;;;4831705;29;20439;-95
2022/08/22 11:58:23;;;;;;;4.77;4.33;;;29.70;76.20;;;;;;4837881;29;21127;-94
2022/08/22 12:00:57;;;;;;;5.93;4.27;;;29.50;72.70;;;;;;4848842;29;20443;-94
2022/08/22 12:03:39;;;;;;;4.30;4.00;;;29.30;73.30;;;;;;4846814;29;20555;-95
2022/08/22 12:06:26;;;;;;;5.00;4.60;;;29.70;68.00;;;;;;4846654;29;20486;-95
2022/08/22 12:09:14;;;;;;;4.60;4.20;;;29.30;69.40;;;;;;4850960;29;21033;-94
2022/08/22 12:11:49;;;;;;;4.67;4.30;;;29.40;71.10;;;;;;4835141;29;20457;-96
2022/08/22 12:14:17;;;;;;;4.63;4.10;;;28.70;67.90;;;;;;4855786;29;20481;-94
2022/08/22 12:17:04;;;;;;;4.40;4.10;;;28.60;65.80;;;;;;4836001;29;20540;-93
2022/08/22 12:19:43;;;;;;;4.43;3.97;;;28.50;68.60;;;;;;4824008;29;20447;-92
2022/08/22 12:22:47;;;;;;;4.20;3.80;;;28.50;69.80;;;;;;4826614;29;21099;-94
2022/08/22 12:25:32;;;;;;;4.27;3.90;;;28.10;71.50;;;;;;4844506;29;20965;-94
2022/08/22 12:28:27;;;;;;;5.13;3.90;;;27.70;73.20;;;;;;4833577;29;20439;-94
2022/08/22 12:31:29;;;;;;;4.13;3.83;;;27.50;72.60;;;;;;4834388;29;20470;-94
2022/08/22 12:34:07;;;;;;;4.37;4.00;;;27.00;72.00;;;;;;4835869;29;20493;-95
2022/08/22 12:37:05;;;;;;;4.50;4.10;;;27.00;69.80;;;;;;4837504;29;20441;-95
2022/08/22 12:39:51;;;;;;;4.20;3.90;;;27.70;69.90;;;;;;4833784;29;21189;-94
2022/08/22 12:42:47;;;;;;;3.53;3.23;;;28.70;62.70;;;;;;4854698;29;21320;-94
2022/08/22 12:45:55;;;;;;;4.40;4.07;;;29.20;65.80;;;;;;4853033;29;20462;-93
2022/08/22 12:48:39;;;;;;;4.00;3.70;;;29.10;63.60;;;;;;4849181;29;20451;-94
2022/08/22 12:51:44;;;;;;;5.37;4.10;;;29.20;62.90;;;;;;4833198;29;20462;-94
2022/08/22 12:54:13;;;;;;;3.60;3.30;;;29.40;60.20;;;;;;4845066;29;20478;-93
2022/08/22 12:56:59;;;;;;;3.63;3.37;;;29.40;67.10;;;;;;4854526;29;20453;-94
2022/08/22 12:59:39;;;;;;;3.70;3.40;;;29.70;63.30;;;;;;4834857;29;20446;-94
2022/08/22 13:02:33;;;;;;;3.60;3.30;;;29.10;60.30;;;;;;4846664;29;20469;-93
2022/08/22 13:05:21;;;;;;;3.80;3.50;;;29.30;67.20;;;;;;4829831;29;20463;-94
2022/08/22 13:08:21;;;;;;;3.70;3.50;;;29.40;60.20;;;;;;4838402;29;20447;-93
2022/08/22 13:10:54;;;;;;;4.00;3.70;;;29.60;60.00;;;;;;4841770;29;20524;-93
2022/08/22 13:13:37;;;;;;;3.23;3.03;;;29.80;57.80;;;;;;4834669;29;20494;-92
2022/08/22 13:16:09;;;;;;;3.57;3.37;;;29.30;59.70;;;;;;4849099;29;20561;-93
2022/08/22 13:18:40;;;;;;;2.90;2.70;;;29.50;65.00;;;;;;4845919;29;21878;-94
2022/08/22 13:21:11;;;;;;;3.20;3.00;;;29.60;62.80;;;;;;4851585;29;20819;-95
2022/08/22 13:23:47;;;;;;;3.47;3.20;;;30.50;60.20;;;;;;4843848;29;20450;-93
2022/08/22 13:26:17;;;;;;;3.80;3.50;;;30.80;60.70;;;;;;4828398;29;20450;-95
2022/08/22 13:28:56;;;;;;;3.30;3.10;;;30.30;57.60;;;;;;4849079;29;20459;-95
2022/08/22 13:31:32;;;;;;;3.10;2.90;;;30.00;55.50;;;;;;4831330;29;20485;-94
2022/08/22 13:34:35;;;;;;;3.37;3.07;;;29.80;59.90;;;;;;4828926;29;20701;-94
2022/08/22 13:37:03;;;;;;;3.30;3.10;;;30.50;58.50;;;;;;4847845;29;20817;-94
2022/08/22 13:39:35;;;;;;;3.00;2.80;;;30.40;58.30;;;;;;4832988;29;20475;-94
2022/08/22 13:42:04;;;;;;;3.50;3.20;;;30.50;52.40;;;;;;4834801;29;20841;-93
2022/08/22 13:44:43;;;;;;;3.30;3.10;;;30.90;51.20;;;;;;4852397;29;20648;-94
2022/08/22 13:47:19;;;;;;;3.40;2.80;;;30.80;55.00;;;;;;4836474;29;20447;-95
2022/08/22 13:49:53;;;;;;;3.40;3.10;;;29.70;56.20;;;;;;4848027;29;20447;-94
2022/08/22 13:52:32;;;;;;;4.10;3.17;;;30.00;61.30;;;;;;4843189;29;20447;-95
2022/08/22 13:55:16;;;;;;;3.83;3.43;;;29.80;58.50;;;;;;4837665;29;20467;-94
2022/08/22 13:57:51;;;;;;;3.33;2.90;;;30.10;56.60;;;;;;4834214;29;20451;-93
2022/08/22 14:00:54;;;;;;;3.50;3.20;;;30.60;57.30;;;;;;4807495;29;20817;-94
2022/08/22 14:03:32;;;;;;;3.50;3.30;;;30.90;58.00;;;;;;4838030;29;20527;-94
2022/08/22 14:05:59;;;;;;;3.83;3.10;;;30.90;59.10;;;;;;4832407;29;20441;-93
2022/08/22 14:08:34;;;;;;;3.10;2.90;;;31.90;54.90;;;;;;4819125;29;20954;-94
2022/08/22 14:11:10;;;;;;;3.23;3.03;;;34.20;54.50;;;;;;4814367;29;20537;-94
2022/08/22 14:13:54;;;;;;;3.43;2.70;;;37.10;46.50;;;;;;4825043;29;21021;-94
2022/08/22 14:16:24;;;;;;;5.17;3.53;;;38.30;45.30;;;;;;4839665;29;20463;-93
2022/08/22 14:18:56;;;;;;;5.43;3.13;;;39.30;41.50;;;;;;4814423;29;20806;-92
2022/08/22 14:21:39;;;;;;;3.23;3.03;;;39.70;41.70;;;;;;4834232;29;20417;-91
2022/08/22 14:24:13;;;;;;;3.63;2.77;;;39.80;41.60;;;;;;4837320;29;20201;-92
2022/08/22 14:26:47;;;;;;;7.00;2.93;;;40.40;37.50;;;;;;4830592;29;20186;-92
2022/08/22 14:29:16;;;;;;;2.90;2.70;;;40.70;37.00;;;;;;4814350;29;20193;-92
2022/08/22 14:32:07;;;;;;;3.00;2.80;;;39.80;38.30;;;;;;4831609;29;20784;-90
2022/08/22 14:34:38;;;;;;;3.10;2.90;;;38.10;35.80;;;;;;4826265;29;20213;-91